Jefferson, Louisiana
Current Conditions -  °F | °C
As of 7:53 AM on Saturday 25 Oct 2014 (Local Time) from KMSY Reporting Station
Few Clouds Few Clouds  
Wind Chill: 59°   Ceiling: Unl
Heat Index: 59°   Visibility: 10mi
Dew Point: 51°   Wind: 0mph
Humidity: 75%   Direction: NA
Pressure: 30.14"   Gusts: NA
Location:  29.96°N, 90.17°W
Report Text: KMSY 251253Z 00000KT 10SM FEW250 15/11 A3014 RMK AO2 SLP208 T01500106
Loading
Personal Weather Stations






























Interactive Weather Map New forecast layout! Learn more

10-Day Weather Forecast

Advertisements
Track Severe Weather on mobile